Time;durP1;ratioP1;P1;durP2;ratioP2;P2;SDS_P1;SDS_P2;PMS_P1;PMS_P2;Temp;Humidity;BMP_temperature;BMP_pressure;BME280_temperature;BME280_humidity;BME280_pressure;Samples;Min_cycle;Max_cycle;Signal;HPM_P1;HPM_P2
2023/04/02 00:00:35;;;;;;;9.60;5.90;;;4.80;99.90;;;;;;5031497;28;20504;-69
2023/04/02 00:03:04;;;;;;;7.68;5.25;;;4.80;99.90;;;;;;5030624;28;20044;-69
2023/04/02 00:05:49;;;;;;;7.93;5.40;;;4.80;99.90;;;;;;5013625;28;20488;-69
2023/04/02 00:08:37;;;;;;;7.07;4.93;;;4.70;99.90;;;;;;5026749;28;20090;-69
2023/04/02 00:11:04;;;;;;;7.82;4.90;;;4.70;99.90;;;;;;5034926;28;20499;-68
2023/04/02 00:13:42;;;;;;;7.18;4.97;;;4.60;99.90;;;;;;5030644;28;20047;-70
2023/04/02 00:16:13;;;;;;;8.15;5.70;;;4.60;99.90;;;;;;5032304;28;20037;-69
2023/04/02 00:18:46;;;;;;;8.85;4.75;;;4.60;99.90;;;;;;5033530;28;20040;-69
2023/04/02 00:21:31;;;;;;;7.05;5.28;;;4.50;99.90;;;;;;5008826;28;20047;-69
2023/04/02 00:23:58;;;;;;;;;;;4.60;99.90;;;;;;5015791;28;20469;-69
2023/04/02 00:26:37;;;;;;;5.03;4.20;;;4.60;99.90;;;;;;5032555;28;20291;-69
2023/04/02 00:29:04;;;;;;;7.97;5.10;;;4.50;99.90;;;;;;5033715;28;20041;-69
2023/04/02 00:31:31;;;;;;;8.93;5.07;;;4.50;99.90;;;;;;5031368;28;20029;-69
2023/04/02 00:34:00;;;;;;;7.30;4.68;;;4.60;99.90;;;;;;5047194;28;20044;-69
2023/04/02 00:36:29;;;;;;;7.28;5.22;;;4.40;99.90;;;;;;5031911;28;20041;-69
2023/04/02 00:38:57;;;;;;;6.93;4.45;;;4.40;99.90;;;;;;5016031;28;20036;-69
2023/04/02 00:41:28;;;;;;;6.18;4.43;;;4.40;99.90;;;;;;5032961;28;20041;-69
2023/04/02 00:43:56;;;;;;;7.50;5.15;;;4.40;99.90;;;;;;5031882;28;20067;-70
2023/04/02 00:46:28;;;;;;;7.30;5.00;;;4.40;99.90;;;;;;5031860;28;20057;-69
2023/04/02 00:48:58;;;;;;;7.20;4.68;;;4.40;99.90;;;;;;5032698;28;20060;-69
2023/04/02 00:51:33;;;;;;;5.70;3.92;;;4.40;99.90;;;;;;5033218;28;20045;-69
2023/04/02 00:54:03;;;;;;;7.80;4.03;;;4.40;99.90;;;;;;5035294;28;20077;-69
2023/04/02 00:56:35;;;;;;;8.13;4.32;;;4.40;99.90;;;;;;5029959;28;20041;-69
2023/04/02 00:59:01;;;;;;;9.13;4.20;;;4.30;99.90;;;;;;5028737;28;20068;-69
2023/04/02 01:01:35;;;;;;;7.40;4.15;;;4.30;99.90;;;;;;5007294;28;20041;-70
2023/04/02 01:04:02;;;;;;;8.43;4.30;;;4.30;99.90;;;;;;5049382;28;20160;-69
2023/04/02 01:06:37;;;;;;;11.63;4.35;;;4.30;99.90;;;;;;5013888;28;20052;-69
2023/04/02 01:09:10;;;;;;;8.80;4.32;;;4.30;99.90;;;;;;5048594;28;20480;-69
2023/04/02 01:12:13;;;;;;;6.03;3.80;;;4.20;99.90;;;;;;5027582;28;20059;-69
2023/04/02 01:15:23;;;;;;;7.30;4.22;;;4.20;99.90;;;;;;5007642;28;20091;-69
2023/04/02 01:18:17;;;;;;;7.53;4.00;;;4.20;99.90;;;;;;4972712;28;20575;-69
2023/04/02 01:21:10;;;;;;;7.53;3.78;;;4.10;99.90;;;;;;4988176;28;20038;-68
2023/04/02 01:23:55;;;;;;;6.65;3.85;;;4.10;99.90;;;;;;5035425;28;20041;-68
2023/04/02 01:26:44;;;;;;;6.60;3.78;;;4.10;99.90;;;;;;5029371;28;20126;-69
2023/04/02 01:29:17;;;;;;;5.72;3.60;;;4.00;99.90;;;;;;5051617;28;20069;-69
2023/04/02 01:31:46;;;;;;;7.22;3.13;;;4.00;99.90;;;;;;5031878;28;20033;-69
2023/04/02 01:34:16;;;;;;;10.68;4.03;;;3.90;99.90;;;;;;5043445;28;20497;-69
2023/04/02 01:37:03;;;;;;;7.25;3.88;;;3.90;99.90;;;;;;5034944;28;20562;-68
2023/04/02 01:39:29;;;;;;;6.82;3.72;;;3.90;99.90;;;;;;5035855;28;20119;-69
2023/04/02 01:42:20;;;;;;;6.22;3.90;;;3.80;99.90;;;;;;5033789;28;20626;-68
2023/04/02 01:45:08;;;;;;;8.48;4.05;;;3.70;99.90;;;;;;5027371;28;20041;-69
2023/04/02 01:47:34;;;;;;;7.38;3.78;;;3.60;99.90;;;;;;5033849;28;20057;-68
2023/04/02 01:50:18;;;;;;;5.90;3.22;;;3.50;99.90;;;;;;5035530;28;20661;-68
2023/04/02 01:52:47;;;;;;;6.45;3.42;;;3.40;99.90;;;;;;5033679;28;20032;-68
2023/04/02 01:55:16;;;;;;;7.28;3.50;;;3.30;99.90;;;;;;5038143;28;20044;-68
2023/04/02 01:57:45;;;;;;;5.35;3.15;;;3.20;99.90;;;;;;5033921;28;20073;-68
2023/04/02 02:00:14;;;;;;;7.78;3.50;;;3.10;99.90;;;;;;5036393;28;20480;-68
2023/04/02 02:02:41;;;;;;;7.03;3.60;;;3.10;99.90;;;;;;5031115;28;20036;-68
2023/04/02 02:05:16;;;;;;;5.03;3.42;;;3.00;99.90;;;;;;5018228;28;20056;-68
2023/04/02 02:07:42;;;;;;;4.30;2.60;;;2.90;99.90;;;;;;5033832;28;20081;-68
2023/04/02 02:10:17;;;;;;;7.70;2.88;;;2.90;99.90;;;;;;5035370;28;20044;-69
2023/04/02 02:12:45;;;;;;;4.57;2.80;;;2.80;99.90;;;;;;5034441;28;20048;-68
2023/04/02 02:15:22;;;;;;;6.28;2.92;;;2.80;99.90;;;;;;5033955;28;20451;-68
2023/04/02 02:17:49;;;;;;;6.45;3.00;;;2.70;99.90;;;;;;5034627;28;20099;-68
2023/04/02 02:20:16;;;;;;;6.45;3.03;;;2.60;99.90;;;;;;5035375;28;20723;-68
2023/04/02 02:22:47;;;;;;;7.00;2.95;;;2.60;99.90;;;;;;5033435;28;20036;-68
2023/04/02 02:25:20;;;;;;;7.63;3.25;;;2.60;99.90;;;;;;5033547;28;20067;-68
2023/04/02 02:28:22;;;;;;;6.75;2.83;;;2.50;99.90;;;;;;5018953;28;20040;-68
2023/04/02 02:31:02;;;;;;;8.75;2.80;;;2.40;99.90;;;;;;5029476;28;20136;-68
2023/04/02 02:33:42;;;;;;;5.47;3.00;;;2.40;99.90;;;;;;5016115;28;20072;-68
2023/04/02 02:36:38;;;;;;;7.75;3.00;;;2.30;99.90;;;;;;5034720;28;20047;-68
2023/04/02 02:39:15;;;;;;;6.60;3.13;;;2.30;99.90;;;;;;5042886;28;20127;-68
2023/04/02 02:42:02;;;;;;;5.13;2.97;;;2.20;99.90;;;;;;5035396;28;20429;-68
2023/04/02 02:44:32;;;;;;;6.65;3.22;;;2.20;99.90;;;;;;5016166;28;20166;-68
2023/04/02 02:47:03;;;;;;;7.97;3.03;;;2.10;99.90;;;;;;5036295;28;20473;-68
2023/04/02 02:49:35;;;;;;;4.07;2.15;;;2.10;99.90;;;;;;5033449;28;20347;-68
2023/04/02 02:52:11;;;;;;;8.88;3.28;;;2.10;99.90;;;;;;5031820;28;20033;-68
2023/04/02 02:54:42;;;;;;;8.02;3.08;;;2.10;99.90;;;;;;5031478;28;20040;-68
2023/04/02 02:57:12;;;;;;;7.68;3.50;;;2.00;99.90;;;;;;5033886;28;20485;-68
2023/04/02 02:59:38;;;;;;;6.15;2.72;;;2.00;99.90;;;;;;5021638;28;20039;-68
2023/04/02 03:02:08;;;;;;;7.68;2.83;;;1.90;99.90;;;;;;5031678;28;20106;-68
2023/04/02 03:04:35;;;;;;;7.30;3.22;;;1.90;99.90;;;;;;5028994;28;20032;-68
2023/04/02 03:07:02;;;;;;;4.85;2.78;;;1.90;99.90;;;;;;5033192;28;20124;-68
2023/04/02 03:09:57;;;;;;;7.03;2.60;;;1.80;99.90;;;;;;5032927;28;20572;-68
2023/04/02 03:12:59;;;;;;;6.68;2.50;;;1.80;99.90;;;;;;5017854;28;20047;-68
2023/04/02 03:15:36;;;;;;;6.68;2.78;;;1.80;99.90;;;;;;5043999;28;20045;-68
2023/04/02 03:18:13;;;;;;;6.05;2.47;;;1.70;99.90;;;;;;5032989;28;20048;-68
2023/04/02 03:20:46;;;;;;;9.00;2.80;;;1.70;99.90;;;;;;5033563;28;20133;-68
2023/04/02 03:23:21;;;;;;;5.68;2.60;;;1.60;99.90;;;;;;5033923;28;20063;-68
2023/04/02 03:26:24;;;;;;;6.80;3.08;;;1.70;99.90;;;;;;5033701;28;20033;-68
2023/04/02 03:29:17;;;;;;;4.97;2.70;;;1.70;99.90;;;;;;5033880;28;20250;-68
2023/04/02 03:31:49;;;;;;;5.47;2.10;;;1.70;99.90;;;;;;5015750;28;20061;-68
2023/04/02 03:34:26;;;;;;;4.35;2.55;;;1.70;99.90;;;;;;5031981;28;20044;-68
2023/04/02 03:36:58;;;;;;;6.85;2.38;;;1.70;99.90;;;;;;5005367;28;20033;-68
2023/04/02 03:39:45;;;;;;;3.78;2.08;;;1.70;99.90;;;;;;5018608;28;20451;-68
2023/04/02 03:42:18;;;;;;;6.15;1.58;;;1.70;99.90;;;;;;5031675;28;20040;-68
2023/04/02 03:45:09;;;;;;;7.53;2.60;;;1.80;99.90;;;;;;5037436;28;20044;-68
2023/04/02 03:47:44;;;;;;;6.95;2.30;;;1.80;99.90;;;;;;5034724;28;20599;-68
2023/04/02 03:50:24;;;;;;;3.97;2.05;;;1.80;99.90;;;;;;5034128;28;20060;-68
2023/04/02 03:52:50;;;;;;;3.53;2.13;;;1.80;99.90;;;;;;5019060;28;20506;-68
2023/04/02 03:55:24;;;;;;;8.77;2.45;;;1.80;99.90;;;;;;5052344;28;20093;-68
2023/04/02 03:57:59;;;;;;;5.97;2.22;;;1.90;99.90;;;;;;5016904;28;20049;-68
2023/04/02 04:00:48;;;;;;;8.30;2.50;;;1.90;99.90;;;;;;5016847;28;20128;-68
2023/04/02 04:03:23;;;;;;;6.25;1.88;;;1.90;99.90;;;;;;5033402;28;20079;-68
2023/04/02 04:05:52;;;;;;;9.93;2.65;;;1.90;99.90;;;;;;5038251;28;20036;-68
2023/04/02 04:08:22;;;;;;;5.72;2.10;;;1.90;99.90;;;;;;5030725;28;20104;-67
2023/04/02 04:10:52;;;;;;;4.68;2.17;;;1.90;99.90;;;;;;5036625;28;20099;-68
2023/04/02 04:13:27;;;;;;;6.10;2.33;;;1.90;99.90;;;;;;5036208;28;20044;-68
2023/04/02 04:16:04;;;;;;;3.35;1.40;;;1.90;99.90;;;;;;5039353;28;20087;-68
2023/04/02 04:18:42;;;;;;;7.38;1.80;;;1.90;99.90;;;;;;5029967;28;20072;-68
2023/04/02 04:21:35;;;;;;;6.28;2.03;;;1.80;99.90;;;;;;5032633;28;20102;-68
2023/04/02 04:24:04;;;;;;;6.97;1.80;;;1.90;99.90;;;;;;5017087;28;20045;-68
2023/04/02 04:26:56;;;;;;;6.00;2.00;;;1.80;99.90;;;;;;5031663;28;20144;-68
2023/04/02 04:29:45;;;;;;;8.88;1.60;;;1.80;99.90;;;;;;5033441;28;20038;-68
2023/04/02 04:32:56;;;;;;;6.88;2.13;;;1.80;99.90;;;;;;5033768;28;20151;-68
2023/04/02 04:35:44;;;;;;;6.80;1.95;;;1.80;99.90;;;;;;5027303;28;20052;-68
2023/04/02 04:38:17;;;;;;;8.63;2.13;;;1.80;99.90;;;;;;5032397;28;20049;-69
2023/04/02 04:40:53;;;;;;;5.47;1.50;;;1.70;99.90;;;;;;5035490;28;20584;-68
2023/04/02 04:43:39;;;;;;;6.82;2.00;;;1.70;99.90;;;;;;5033725;28;20045;-68
2023/04/02 04:46:12;;;;;;;4.43;1.02;;;1.70;99.90;;;;;;5036160;28;20519;-68
2023/04/02 04:49:06;;;;;;;3.75;1.38;;;1.70;99.90;;;;;;5031859;28;20055;-68
2023/04/02 04:51:49;;;;;;;4.43;1.95;;;1.70;99.90;;;;;;5033285;28;20041;-68
2023/04/02 04:54:15;;;;;;;7.72;1.60;;;1.70;99.90;;;;;;5020906;28;20029;-68
2023/04/02 04:56:47;;;;;;;4.07;1.60;;;1.70;99.90;;;;;;5032065;28;20033;-68
2023/04/02 04:59:40;;;;;;;5.53;1.83;;;1.70;99.90;;;;;;5030083;28;20044;-68
2023/04/02 05:02:21;;;;;;;8.82;1.55;;;1.70;99.90;;;;;;5029028;28;20857;-68
2023/04/02 05:04:51;;;;;;;4.72;1.58;;;1.60;99.90;;;;;;5034031;28;20666;-68
2023/04/02 05:07:44;;;;;;;3.97;1.40;;;1.70;99.90;;;;;;5037001;28;20045;-68
2023/04/02 05:10:27;;;;;;;4.32;1.40;;;1.60;99.90;;;;;;5036313;28;20116;-68
2023/04/02 05:13:04;;;;;;;5.38;1.45;;;1.60;99.90;;;;;;5034771;28;20044;-68
2023/04/02 05:15:47;;;;;;;3.30;1.05;;;1.60;99.90;;;;;;5033032;28;20098;-68
2023/04/02 05:18:19;;;;;;;5.30;1.52;;;1.60;99.90;;;;;;5052200;28;20053;-68
2023/04/02 05:20:55;;;;;;;4.43;1.40;;;1.60;99.90;;;;;;5035857;28;20397;-68
2023/04/02 05:23:28;;;;;;;7.00;1.00;;;1.60;99.90;;;;;;5050921;28;20358;-68
2023/04/02 05:26:06;;;;;;;9.38;1.17;;;1.50;99.90;;;;;;5031573;28;20037;-68
2023/04/02 05:28:50;;;;;;;9.82;1.63;;;1.50;99.90;;;;;;5036409;28;20041;-68
2023/04/02 05:31:41;;;;;;;5.22;1.42;;;1.60;99.90;;;;;;5035943;28;20040;-68
2023/04/02 05:34:08;;;;;;;6.18;1.40;;;1.50;99.90;;;;;;5033392;28;20041;-68
2023/04/02 05:36:34;;;;;;;5.38;0.95;;;1.50;99.90;;;;;;5036038;28;20045;-67
2023/04/02 05:39:00;;;;;;;8.73;1.67;;;1.50;99.90;;;;;;5034536;28;20062;-68
2023/04/02 05:41:31;;;;;;;6.65;1.00;;;1.50;99.90;;;;;;5051667;28;20110;-68
2023/04/02 05:44:32;;;;;;;7.40;1.50;;;1.50;99.90;;;;;;5033021;28;20106;-68
2023/04/02 05:47:17;;;;;;;5.25;1.48;;;1.50;99.90;;;;;;5035235;28;20088;-68
2023/04/02 05:50:21;;;;;;;2.40;0.60;;;1.50;99.90;;;;;;5034231;28;20048;-68
2023/04/02 05:53:26;;;;;;;4.22;0.82;;;1.50;99.90;;;;;;5016033;28;20053;-68
2023/04/02 05:56:00;;;;;;;3.60;1.25;;;1.50;99.90;;;;;;5031226;28;20519;-68
2023/04/02 05:58:38;;;;;;;9.05;1.40;;;1.60;99.90;;;;;;5027568;28;20450;-68
2023/04/02 06:01:14;;;;;;;4.72;1.23;;;1.60;99.90;;;;;;5030332;28;20037;-68
2023/04/02 06:03:56;;;;;;;6.18;1.40;;;1.60;99.90;;;;;;5037031;28;20040;-68
2023/04/02 06:06:43;;;;;;;7.20;1.60;;;1.60;99.90;;;;;;5014442;28;20480;-68
2023/04/02 06:09:27;;;;;;;5.93;1.70;;;1.70;99.90;;;;;;5037530;28;20433;-68
2023/04/02 06:12:09;;;;;;;7.18;2.30;;;1.70;99.90;;;;;;5052873;28;20047;-68
2023/04/02 06:14:36;;;;;;;6.38;1.25;;;1.70;99.90;;;;;;5016680;28;20037;-68
2023/04/02 06:17:01;;;;;;;7.07;1.50;;;1.80;99.90;;;;;;5052151;28;20484;-68
2023/04/02 06:19:34;;;;;;;10.82;1.27;;;1.90;99.90;;;;;;5035462;28;20052;-68
2023/04/02 06:22:20;;;;;;;5.88;1.20;;;2.00;99.90;;;;;;5035646;28;20480;-68
2023/04/02 06:24:50;;;;;;;5.90;1.00;;;2.00;99.90;;;;;;5033638;28;20342;-68
2023/04/02 06:27:18;;;;;;;4.68;1.20;;;2.00;99.90;;;;;;5019269;28;20048;-67
2023/04/02 06:29:51;;;;;;;8.15;1.60;;;2.00;99.90;;;;;;5049266;28;20051;-68
2023/04/02 06:32:20;;;;;;;4.72;0.80;;;2.10;99.90;;;;;;5034071;28;20091;-67
2023/04/02 06:34:46;;;;;;;5.85;1.30;;;2.20;99.90;;;;;;5036284;28;20594;-68
2023/04/02 06:37:34;;;;;;;3.70;1.23;;;2.20;99.90;;;;;;5033383;28;20044;-68
2023/04/02 06:40:03;;;;;;;6.72;1.02;;;2.30;99.90;;;;;;5050011;28;20044;-67
2023/04/02 06:42:38;;;;;;;5.28;1.05;;;2.40;99.90;;;;;;5018216;28;20451;-67
2023/04/02 06:45:06;;;;;;;3.22;0.85;;;2.60;99.90;;;;;;5033675;28;20041;-67
2023/04/02 06:47:37;;;;;;;4.65;0.90;;;2.60;99.90;;;;;;5031584;28;20048;-67
2023/04/02 06:50:26;;;;;;;4.68;1.45;;;2.70;99.90;;;;;;5030465;28;20091;-68
2023/04/02 06:52:58;;;;;;;3.75;0.93;;;2.90;99.90;;;;;;5032968;28;20051;-67
2023/04/02 06:55:43;;;;;;;5.13;1.08;;;2.90;99.90;;;;;;5038885;28;20041;-68
2023/04/02 06:58:09;;;;;;;8.53;1.43;;;3.00;99.90;;;;;;5029835;28;20056;-68
2023/04/02 07:00:41;;;;;;;6.28;1.15;;;3.10;99.90;;;;;;5035609;28;20385;-68
2023/04/02 07:03:14;;;;;;;5.82;1.38;;;3.20;99.90;;;;;;5015178;28;20045;-67
2023/04/02 07:05:40;;;;;;;3.30;0.85;;;3.30;99.90;;;;;;5036606;28;20041;-68
2023/04/02 07:08:06;;;;;;;4.22;1.25;;;3.40;99.90;;;;;;5015439;28;20353;-67
2023/04/02 07:10:33;;;;;;;5.95;1.48;;;3.50;99.90;;;;;;5036371;28;20048;-67
2023/04/02 07:13:01;;;;;;;5.80;1.38;;;3.50;99.90;;;;;;5034443;28;20035;-68
2023/04/02 07:15:27;;;;;;;5.18;0.88;;;3.50;99.90;;;;;;5033308;28;20037;-67
2023/04/02 07:17:57;;;;;;;8.35;1.30;;;3.60;99.90;;;;;;5032107;28;20119;-68
2023/04/02 07:20:30;;;;;;;2.83;0.70;;;3.70;99.90;;;;;;5021909;28;20094;-67
2023/04/02 07:22:56;;;;;;;5.60;1.20;;;3.70;99.90;;;;;;5050311;28;20051;-66
2023/04/02 07:25:23;;;;;;;4.38;1.23;;;3.80;99.90;;;;;;5037670;28;20481;-67
2023/04/02 07:27:49;;;;;;;3.92;1.45;;;3.90;99.90;;;;;;5050620;28;20041;-67
2023/04/02 07:30:15;;;;;;;5.10;1.25;;;4.10;99.90;;;;;;5035560;28;20088;-67
2023/04/02 07:32:41;;;;;;;6.05;1.10;;;4.20;99.90;;;;;;5030231;28;20057;-68
2023/04/02 07:35:08;;;;;;;5.47;1.10;;;4.40;99.90;;;;;;5033489;28;20033;-68
2023/04/02 07:37:35;;;;;;;3.90;0.88;;;4.50;99.90;;;;;;5035199;28;20507;-67
2023/04/02 07:40:01;;;;;;;7.45;1.08;;;4.70;99.90;;;;;;5033645;28;20036;-67
2023/04/02 07:42:27;;;;;;;3.85;1.15;;;4.90;99.90;;;;;;5015152;28;20067;-67
2023/04/02 07:44:52;;;;;;;5.32;1.05;;;5.20;99.90;;;;;;5029721;28;20028;-68
2023/04/02 07:47:18;;;;;;;3.97;1.05;;;5.40;99.90;;;;;;5047014;28;20115;-68
2023/04/02 07:49:44;;;;;;;4.65;1.00;;;5.50;99.90;;;;;;5049113;28;20040;-68
2023/04/02 07:52:11;;;;;;;4.60;1.08;;;5.90;99.90;;;;;;5033980;28;20095;-68
2023/04/02 07:54:37;;;;;;;5.00;0.77;;;6.50;99.90;;;;;;5005586;28;20090;-68
2023/04/02 07:57:02;;;;;;;4.03;0.75;;;6.80;99.90;;;;;;5028527;28;20435;-68
2023/04/02 07:59:28;;;;;;;4.00;1.20;;;6.90;99.90;;;;;;5035149;28;20048;-68
2023/04/02 08:01:54;;;;;;;4.70;0.90;;;6.90;99.90;;;;;;5050916;28;20496;-69
2023/04/02 08:04:21;;;;;;;5.43;1.38;;;6.90;99.90;;;;;;5051602;28;20123;-68
2023/04/02 08:06:48;;;;;;;3.97;0.80;;;7.10;99.90;;;;;;5048949;28;20205;-68
2023/04/02 08:09:15;;;;;;;5.05;1.00;;;7.40;99.90;;;;;;5051433;28;20037;-69
2023/04/02 08:11:41;;;;;;;5.22;1.17;;;7.20;99.90;;;;;;5048904;28;20037;-68
2023/04/02 08:14:08;;;;;;;4.93;0.90;;;6.90;99.90;;;;;;5030789;28;20063;-68
2023/04/02 08:16:51;;;;;;;3.13;0.70;;;7.10;99.90;;;;;;5030730;28;20037;-68
2023/04/02 08:19:18;;;;;;;3.75;0.98;;;7.00;99.90;;;;;;5036172;28;20511;-68
2023/04/02 08:21:44;;;;;;;4.25;0.80;;;6.60;99.90;;;;;;5044219;28;20126;-68
2023/04/02 08:24:09;;;;;;;3.10;0.98;;;6.40;99.90;;;;;;5028130;28;20037;-67
2023/04/02 08:26:36;;;;;;;5.18;1.00;;;6.70;99.90;;;;;;5032664;28;20369;-68
2023/04/02 08:29:02;;;;;;;7.72;1.10;;;7.60;99.90;;;;;;5033708;28;20047;-68
2023/04/02 08:31:29;;;;;;;3.42;0.73;;;8.50;99.90;;;;;;5029953;28;20134;-68
2023/04/02 08:33:57;;;;;;;3.85;1.17;;;9.30;99.90;;;;;;5014497;28;20685;-68
2023/04/02 08:36:31;;;;;;;5.63;1.00;;;9.80;99.90;;;;;;5030460;28;20051;-68
2023/04/02 08:38:57;;;;;;;4.43;1.20;;;9.80;99.90;;;;;;5033913;28;20049;-68
2023/04/02 08:41:29;;;;;;;4.93;1.08;;;9.90;99.90;;;;;;5034235;28;20045;-67
2023/04/02 08:44:10;;;;;;;4.15;1.00;;;9.50;99.90;;;;;;5033937;28;20696;-68
2023/04/02 08:46:45;;;;;;;2.97;0.70;;;9.30;99.90;;;;;;5031342;28;20067;-67
2023/04/02 08:49:15;;;;;;;4.43;1.08;;;9.50;99.90;;;;;;5049561;28;20049;-69
2023/04/02 08:51:41;;;;;;;5.13;1.02;;;9.80;99.90;;;;;;5032756;28;20404;-69
2023/04/02 08:54:31;;;;;;;2.58;0.88;;;9.90;99.90;;;;;;5031971;28;20135;-68
2023/04/02 08:57:05;;;;;;;4.70;1.00;;;10.20;99.90;;;;;;5030793;28;20073;-67
2023/04/02 08:59:39;;;;;;;5.00;1.00;;;10.30;99.90;;;;;;5034861;28;20102;-68
2023/04/02 09:02:15;;;;;;;5.32;1.00;;;10.60;99.90;;;;;;5034836;28;20697;-69
2023/04/02 09:04:41;;;;;;;3.83;0.82;;;9.90;99.90;;;;;;5047660;28;20473;-68
2023/04/02 09:07:11;;;;;;;3.92;1.00;;;10.00;99.90;;;;;;5033527;28;20041;-68
2023/04/02 09:09:38;;;;;;;4.30;0.95;;;9.80;99.90;;;;;;5051529;28;20052;-68
2023/04/02 09:12:05;;;;;;;3.97;0.85;;;9.80;99.90;;;;;;5034846;28;20060;-67
2023/04/02 09:14:31;;;;;;;5.93;1.48;;;9.60;99.90;;;;;;5053103;28;20508;-68
2023/04/02 09:17:02;;;;;;;3.33;1.33;;;9.90;99.90;;;;;;5036640;28;20128;-69
2023/04/02 09:19:43;;;;;;;3.30;0.85;;;9.90;99.90;;;;;;5035953;28;20369;-69
2023/04/02 09:22:23;;;;;;;4.95;0.80;;;9.90;99.90;;;;;;5032975;28;20432;-68
2023/04/02 09:24:57;;;;;;;2.88;0.70;;;9.90;99.90;;;;;;5035158;28;20041;-69
2023/04/02 09:27:26;;;;;;;2.13;0.70;;;10.00;99.90;;;;;;5035648;28;20052;-69
2023/04/02 09:30:05;;;;;;;2.53;0.57;;;10.10;99.90;;;;;;5016056;28;20124;-69
2023/04/02 09:32:50;;;;;;;1.88;0.52;;;10.30;99.90;;;;;;5052843;28;20041;-69
2023/04/02 09:35:31;;;;;;;2.33;0.80;;;10.50;99.90;;;;;;5035721;28;20133;-69
2023/04/02 09:38:09;;;;;;;3.03;0.88;;;11.00;99.90;;;;;;5032221;28;20033;-70
2023/04/02 09:40:52;;;;;;;2.88;0.73;;;11.10;99.90;;;;;;5035497;28;20139;-69
2023/04/02 09:43:20;;;;;;;3.95;1.10;;;11.30;99.90;;;;;;5054140;28;20036;-70
2023/04/02 09:45:55;;;;;;;3.30;0.88;;;11.30;99.90;;;;;;5036166;28;20080;-69
2023/04/02 09:48:33;;;;;;;5.68;3.40;;;11.50;99.90;;;;;;5033957;28;20124;-69
2023/04/02 09:51:11;;;;;;;5.68;1.52;;;11.70;99.90;;;;;;5050197;28;20500;-69
2023/04/02 09:53:40;;;;;;;3.95;1.20;;;12.20;99.90;;;;;;5052999;28;20112;-69
2023/04/02 09:56:11;;;;;;;4.30;1.23;;;12.30;99.90;;;;;;5052978;28;20037;-69
2023/04/02 09:58:37;;;;;;;6.50;1.10;;;12.50;99.90;;;;;;5034683;28;20170;-70
2023/04/02 10:01:04;;;;;;;4.97;0.98;;;12.40;99.90;;;;;;5037633;28;20067;-69
2023/04/02 10:03:34;;;;;;;5.70;1.20;;;12.50;99.90;;;;;;5036656;28;20041;-69
2023/04/02 10:06:11;;;;;;;2.63;0.93;;;12.30;99.10;;;;;;5035213;28;20048;-69
2023/04/02 10:08:39;;;;;;;2.33;0.60;;;12.40;99.10;;;;;;5036760;28;20508;-69
2023/04/02 10:11:11;;;;;;;5.70;1.25;;;12.30;97.50;;;;;;5053029;28;20044;-70
2023/04/02 10:13:52;;;;;;;2.22;0.80;;;11.90;99.00;;;;;;5049350;28;20071;-70
2023/04/02 10:16:26;;;;;;;4.32;0.95;;;11.60;96.70;;;;;;5038098;28;20128;-70
2023/04/02 10:18:57;;;;;;;3.70;0.93;;;11.40;98.00;;;;;;5038397;28;20068;-70
2023/04/02 10:21:31;;;;;;;2.55;0.95;;;11.50;99.00;;;;;;5032194;28;20046;-70
2023/04/02 10:23:58;;;;;;;4.82;1.00;;;11.40;97.50;;;;;;5053120;28;20506;-70
2023/04/02 10:26:55;;;;;;;3.67;0.90;;;11.20;98.50;;;;;;5037945;28;20064;-70
2023/04/02 10:29:43;;;;;;;5.95;1.52;;;11.50;97.30;;;;;;5033208;28;20094;-70
2023/04/02 10:32:40;;;;;;;5.60;1.73;;;11.50;96.40;;;;;;5037264;28;20116;-70
2023/04/02 10:35:06;;;;;;;3.72;1.00;;;11.10;95.70;;;;;;5015685;28;20543;-70
2023/04/02 10:37:44;;;;;;;3.85;0.98;;;11.20;98.20;;;;;;5038266;28;20068;-70
2023/04/02 10:40:20;;;;;;;3.65;0.68;;;11.50;97.40;;;;;;5036552;28;20040;-70
2023/04/02 10:42:59;;;;;;;3.13;0.98;;;11.40;95.60;;;;;;5052616;28;20092;-71
2023/04/02 10:45:45;;;;;;;4.05;0.90;;;11.40;97.90;;;;;;5034986;28;20047;-70
2023/04/02 10:48:28;;;;;;;2.90;0.80;;;11.60;96.50;;;;;;5038948;28;20227;-70
2023/04/02 10:51:03;;;;;;;3.47;0.70;;;11.80;98.30;;;;;;5045337;28;20064;-71
2023/04/02 10:53:36;;;;;;;2.65;0.70;;;11.90;96.70;;;;;;5051894;28;20051;-70
2023/04/02 10:56:07;;;;;;;4.60;0.70;;;12.00;96.70;;;;;;5052984;28;20455;-70
2023/04/02 10:58:38;;;;;;;3.05;0.77;;;11.90;97.30;;;;;;5039887;28;20120;-70
2023/04/02 11:01:12;;;;;;;1.88;0.57;;;12.00;97.00;;;;;;5029731;28;20037;-71
2023/04/02 11:03:48;;;;;;;1.98;0.47;;;11.90;95.20;;;;;;5036553;28;20055;-71
2023/04/02 11:06:25;;;;;;;2.28;0.55;;;11.90;94.80;;;;;;5049251;28;20048;-71
2023/04/02 11:08:56;;;;;;;3.58;0.73;;;12.10;95.60;;;;;;5034774;28;20144;-71
2023/04/02 11:11:43;;;;;;;4.07;1.85;;;12.40;97.60;;;;;;5048022;28;20568;-71
2023/04/02 11:14:25;;;;;;;2.65;0.70;;;12.90;96.50;;;;;;5038349;28;20029;-71
2023/04/02 11:16:53;;;;;;;2.92;0.75;;;13.00;94.70;;;;;;5034871;28;20350;-71
2023/04/02 11:19:28;;;;;;;2.88;0.85;;;13.10;95.70;;;;;;5036136;28;20072;-71
2023/04/02 11:21:58;;;;;;;2.50;0.60;;;12.80;94.90;;;;;;5032873;28;20272;-72
2023/04/02 11:24:31;;;;;;;2.72;0.88;;;12.70;95.00;;;;;;5041560;28;20052;-71
2023/04/02 11:27:28;;;;;;;2.33;0.80;;;12.80;95.30;;;;;;5033953;28;20377;-71
2023/04/02 11:30:14;;;;;;;2.20;0.57;;;13.20;94.50;;;;;;5035776;28;20454;-71
2023/04/02 11:32:44;;;;;;;3.13;0.80;;;13.40;95.60;;;;;;5015299;28;20072;-71
2023/04/02 11:35:31;;;;;;;3.83;0.80;;;13.80;94.80;;;;;;5035370;28;20043;-71
2023/04/02 11:38:09;;;;;;;2.97;0.75;;;13.80;92.90;;;;;;5014090;28;21440;-69
2023/04/02 11:40:47;;;;;;;2.45;0.70;;;13.80;91.00;;;;;;5051206;28;20041;-72
2023/04/02 11:43:31;;;;;;;2.90;0.70;;;13.60;92.00;;;;;;5035963;28;20048;-71
2023/04/02 11:46:01;;;;;;;;;;;13.70;91.40;;;;;;5035021;28;20128;-72
2023/04/02 11:48:34;;;;;;;4.75;1.13;;;13.50;91.00;;;;;;5034058;28;20437;-71
2023/04/02 11:51:13;;;;;;;3.10;1.25;;;13.20;91.90;;;;;;5031844;28;20048;-71
2023/04/02 11:53:41;;;;;;;3.15;0.90;;;13.60;93.20;;;;;;5033861;28;20037;-70
2023/04/02 11:56:27;;;;;;;2.65;0.68;;;13.70;91.70;;;;;;5050232;28;20036;-70
2023/04/02 11:59:13;;;;;;;4.60;1.10;;;13.80;90.60;;;;;;5034989;28;20036;-70
2023/04/02 12:01:49;;;;;;;4.80;1.35;;;13.80;91.90;;;;;;5033108;28;20056;-69
2023/04/02 12:04:34;;;;;;;3.47;1.00;;;14.20;92.10;;;;;;5031581;28;20067;-70
2023/04/02 12:07:18;;;;;;;3.40;0.88;;;14.10;91.40;;;;;;5031398;28;20036;-71
2023/04/02 12:09:49;;;;;;;2.43;0.60;;;14.10;91.10;;;;;;5032508;28;20141;-71
2023/04/02 12:12:25;;;;;;;3.92;0.82;;;14.40;91.00;;;;;;5029477;28;20288;-70
2023/04/02 12:14:53;;;;;;;3.03;0.65;;;14.30;88.90;;;;;;5034875;28;20457;-70
2023/04/02 12:17:31;;;;;;;3.53;0.65;;;14.10;87.50;;;;;;5033283;28;20048;-71
2023/04/02 12:20:00;;;;;;;2.15;0.50;;;14.20;88.40;;;;;;5034016;28;20502;-71
2023/04/02 12:22:31;;;;;;;2.38;0.70;;;14.30;89.60;;;;;;5030925;28;20056;-71
2023/04/02 12:25:17;;;;;;;3.17;0.70;;;14.50;90.90;;;;;;5030989;28;20087;-71
2023/04/02 12:27:45;;;;;;;2.67;0.60;;;14.90;87.50;;;;;;5016993;28;20043;-70
2023/04/02 12:30:21;;;;;;;4.47;0.95;;;15.10;88.30;;;;;;5033770;28;20047;-70
2023/04/02 12:32:46;;;;;;;2.50;0.80;;;15.20;85.80;;;;;;5035076;28;20492;-70
2023/04/02 12:35:26;;;;;;;3.05;0.73;;;14.80;86.10;;;;;;5035262;28;20048;-71
2023/04/02 12:37:53;;;;;;;3.75;0.70;;;14.80;84.60;;;;;;5033809;28;20048;-71
2023/04/02 12:40:18;;;;;;;2.67;0.60;;;14.80;85.20;;;;;;5016671;28;20044;-71
2023/04/02 12:42:44;;;;;;;2.33;0.80;;;14.80;85.10;;;;;;5019663;28;20041;-71
2023/04/02 12:45:24;;;;;;;2.75;0.55;;;14.90;83.20;;;;;;5016492;28;20488;-70
2023/04/02 12:47:52;;;;;;;2.40;0.73;;;15.10;79.30;;;;;;5032781;28;20062;-71
2023/04/02 12:50:19;;;;;;;3.10;0.60;;;14.90;79.20;;;;;;5032836;28;20724;-71
2023/04/02 12:52:48;;;;;;;1.77;0.60;;;14.80;80.50;;;;;;5032130;28;20045;-71
2023/04/02 12:55:23;;;;;;;3.45;0.50;;;14.70;80.00;;;;;;5031863;28;20102;-71
2023/04/02 12:57:55;;;;;;;2.70;0.73;;;15.00;83.50;;;;;;5035820;28;20435;-71
2023/04/02 13:00:21;;;;;;;2.13;0.50;;;15.20;80.80;;;;;;5050387;28;20079;-70
2023/04/02 13:03:15;;;;;;;3.03;0.70;;;15.00;80.50;;;;;;5038310;28;20072;-71
2023/04/02 13:05:45;;;;;;;3.30;0.60;;;15.10;81.30;;;;;;5022143;28;20072;-71
2023/04/02 13:08:40;;;;;;;2.88;0.60;;;15.00;78.00;;;;;;5017933;28;20311;-70
2023/04/02 13:11:06;;;;;;;2.47;0.85;;;14.90;77.50;;;;;;5032121;28;20064;-71
2023/04/02 13:13:42;;;;;;;1.30;0.50;;;14.80;78.50;;;;;;5033397;28;20052;-70
2023/04/02 13:16:14;;;;;;;2.45;0.70;;;14.80;80.80;;;;;;5031948;28;20049;-70
2023/04/02 13:18:41;;;;;;;1.98;0.50;;;15.00;78.30;;;;;;5035035;28;20129;-71
2023/04/02 13:21:13;;;;;;;3.08;0.70;;;14.80;78.90;;;;;;5030050;28;20045;-71
2023/04/02 13:23:39;;;;;;;2.92;0.60;;;14.90;80.50;;;;;;5034906;28;20097;-71
2023/04/02 13:26:07;;;;;;;3.80;0.68;;;15.10;80.70;;;;;;5035777;28;20560;-71
2023/04/02 13:28:33;;;;;;;3.78;0.52;;;15.00;78.70;;;;;;5042269;28;20490;-70
2023/04/02 13:30:59;;;;;;;4.43;0.70;;;14.50;79.70;;;;;;5018642;28;20029;-71
2023/04/02 13:33:25;;;;;;;2.47;0.60;;;14.30;81.00;;;;;;5021633;28;20047;-70
2023/04/02 13:35:51;;;;;;;2.25;0.65;;;14.50;84.20;;;;;;5038447;28;20037;-71